Abbeville, Mississippi
Current Conditions -  °F | °C
As of 11:55 AM on Friday 31 Oct 2014 (Local Time) from KUOX Reporting Station
Broken Clouds Broken Clouds  
Wind Chill: 59°   Ceiling: 2900
Heat Index: 59°   Visibility: 10mi
Dew Point: 46°   Wind: 13mph
Humidity: 63%   Direction: 350°N
Pressure: 30.1"   Gusts: 18mph
Location:  34.5°N, 89.5°W
Report Text: KUOX 311655Z AUTO 35011G16KT 10SM BKN029 15/08 A3010 RMK AO2 PWINO PNO
Loading
Personal Weather Stations






























Interactive Weather Map
Tropical Storm Tracking
New forecast layout! Learn more

10-Day Weather Forecast

Advertisements
Track Severe Weather on mobile